sensor_id;sensor_type;location;lat;lon;timestamp;temperature;humidity
45785;DHT22;31489;51.404;5.474;2023-02-20T00:00:57;9.50;75.90
45785;DHT22;31489;51.404;5.474;2023-02-20T00:03:22;9.50;75.90
45785;DHT22;31489;51.404;5.474;2023-02-20T00:05:48;9.40;75.90
45785;DHT22;31489;51.404;5.474;2023-02-20T00:08:14;9.50;76.00
45785;DHT22;31489;51.404;5.474;2023-02-20T00:10:39;9.50;76.00
45785;DHT22;31489;51.404;5.474;2023-02-20T00:13:05;9.50;76.00
45785;DHT22;31489;51.404;5.474;2023-02-20T00:15:31;9.50;76.00
45785;DHT22;31489;51.404;5.474;2023-02-20T00:17:57;9.50;76.00
45785;DHT22;31489;51.404;5.474;2023-02-20T00:20:24;9.50;76.00
45785;DHT22;31489;51.404;5.474;2023-02-20T00:22:51;9.50;76.00
45785;DHT22;31489;51.404;5.474;2023-02-20T00:25:19;9.50;76.00
45785;DHT22;31489;51.404;5.474;2023-02-20T00:27:45;9.50;75.90
45785;DHT22;31489;51.404;5.474;2023-02-20T00:30:15;9.50;75.90
45785;DHT22;31489;51.404;5.474;2023-02-20T00:32:41;9.50;75.90
45785;DHT22;31489;51.404;5.474;2023-02-20T00:35:11;9.50;75.80
45785;DHT22;31489;51.404;5.474;2023-02-20T00:37:37;9.50;75.90
45785;DHT22;31489;51.404;5.474;2023-02-20T00:40:03;9.50;75.90
45785;DHT22;31489;51.404;5.474;2023-02-20T00:42:29;9.50;75.90
45785;DHT22;31489;51.404;5.474;2023-02-20T00:44:55;9.50;76.00
45785;DHT22;31489;51.404;5.474;2023-02-20T00:47:21;9.50;76.00
45785;DHT22;31489;51.404;5.474;2023-02-20T00:49:46;9.50;76.60
45785;DHT22;31489;51.404;5.474;2023-02-20T00:52:12;9.50;76.00
45785;DHT22;31489;51.404;5.474;2023-02-20T00:54:38;9.50;76.10
45785;DHT22;31489;51.404;5.474;2023-02-20T00:57:03;9.50;76.10
45785;DHT22;31489;51.404;5.474;2023-02-20T00:59:29;9.50;76.10
45785;DHT22;31489;51.404;5.474;2023-02-20T01:01:55;9.40;76.00
45785;DHT22;31489;51.404;5.474;2023-02-20T01:04:20;9.40;76.10
45785;DHT22;31489;51.404;5.474;2023-02-20T01:06:46;9.50;76.10
45785;DHT22;31489;51.404;5.474;2023-02-20T01:09:12;9.40;76.20
45785;DHT22;31489;51.404;5.474;2023-02-20T01:11:41;9.40;76.20
45785;DHT22;31489;51.404;5.474;2023-02-20T01:14:07;9.40;76.20
45785;DHT22;31489;51.404;5.474;2023-02-20T01:16:33;9.40;76.30
45785;DHT22;31489;51.404;5.474;2023-02-20T01:18:59;9.40;76.40
45785;DHT22;31489;51.404;5.474;2023-02-20T01:21:24;9.40;76.50
45785;DHT22;31489;51.404;5.474;2023-02-20T01:23:50;9.40;76.60
45785;DHT22;31489;51.404;5.474;2023-02-20T01:26:16;9.40;76.60
45785;DHT22;31489;51.404;5.474;2023-02-20T01:28:45;9.40;76.60
45785;DHT22;31489;51.404;5.474;2023-02-20T01:31:13;9.40;76.70
45785;DHT22;31489;51.404;5.474;2023-02-20T01:33:40;9.40;76.70
45785;DHT22;31489;51.404;5.474;2023-02-20T01:36:07;9.40;76.80
45785;DHT22;31489;51.404;5.474;2023-02-20T01:38:33;9.40;76.70
45785;DHT22;31489;51.404;5.474;2023-02-20T01:40:59;9.40;76.80
45785;DHT22;31489;51.404;5.474;2023-02-20T01:43:24;9.40;76.80
45785;DHT22;31489;51.404;5.474;2023-02-20T01:45:50;9.40;76.80
45785;DHT22;31489;51.404;5.474;2023-02-20T01:48:21;9.40;76.90
45785;DHT22;31489;51.404;5.474;2023-02-20T01:50:50;9.40;76.90
45785;DHT22;31489;51.404;5.474;2023-02-20T01:53:19;9.40;76.90
45785;DHT22;31489;51.404;5.474;2023-02-20T01:55:50;9.40;76.90
45785;DHT22;31489;51.404;5.474;2023-02-20T01:58:22;9.40;77.00
45785;DHT22;31489;51.404;5.474;2023-02-20T02:00:50;9.40;76.90
45785;DHT22;31489;51.404;5.474;2023-02-20T02:03:28;9.40;76.90
45785;DHT22;31489;51.404;5.474;2023-02-20T02:06:02;9.30;77.00
45785;DHT22;31489;51.404;5.474;2023-02-20T02:08:29;9.30;77.00
45785;DHT22;31489;51.404;5.474;2023-02-20T02:10:59;9.30;77.00
45785;DHT22;31489;51.404;5.474;2023-02-20T02:13:27;9.30;77.10
45785;DHT22;31489;51.404;5.474;2023-02-20T02:16:23;9.20;77.10
45785;DHT22;31489;51.404;5.474;2023-02-20T02:19:16;9.20;77.20
45785;DHT22;31489;51.404;5.474;2023-02-20T02:22:23;9.20;77.30
45785;DHT22;31489;51.404;5.474;2023-02-20T02:31:08;9.10;77.60
45785;DHT22;31489;51.404;5.474;2023-02-20T02:37:00;9.10;77.80
45785;DHT22;31489;51.404;5.474;2023-02-20T02:39:47;9.10;77.90
45785;DHT22;31489;51.404;5.474;2023-02-20T02:42:32;9.00;77.80
45785;DHT22;31489;51.404;5.474;2023-02-20T02:47:49;9.00;77.90
45785;DHT22;31489;51.404;5.474;2023-02-20T02:50:24;9.10;78.30
45785;DHT22;31489;51.404;5.474;2023-02-20T02:52:53;9.00;78.30
45785;DHT22;31489;51.404;5.474;2023-02-20T02:55:30;9.00;78.40
45785;DHT22;31489;51.404;5.474;2023-02-20T02:57:55;9.00;78.60
45785;DHT22;31489;51.404;5.474;2023-02-20T03:00:27;9.10;78.70
45785;DHT22;31489;51.404;5.474;2023-02-20T03:05:30;9.10;78.80
45785;DHT22;31489;51.404;5.474;2023-02-20T03:08:08;9.10;78.90
45785;DHT22;31489;51.404;5.474;2023-02-20T03:10:39;9.10;79.00
45785;DHT22;31489;51.404;5.474;2023-02-20T03:13:07;9.10;79.10
45785;DHT22;31489;51.404;5.474;2023-02-20T03:15:44;9.10;79.20
45785;DHT22;31489;51.404;5.474;2023-02-20T03:18:16;9.10;79.20
45785;DHT22;31489;51.404;5.474;2023-02-20T03:20:53;9.20;79.20
45785;DHT22;31489;51.404;5.474;2023-02-20T03:23:25;9.20;79.40
45785;DHT22;31489;51.404;5.474;2023-02-20T03:25:58;9.20;79.50
45785;DHT22;31489;51.404;5.474;2023-02-20T03:28:31;9.20;79.40
45785;DHT22;31489;51.404;5.474;2023-02-20T03:31:06;9.20;79.50
45785;DHT22;31489;51.404;5.474;2023-02-20T03:37:08;9.30;79.80
45785;DHT22;31489;51.404;5.474;2023-02-20T03:39:54;9.30;79.70
45785;DHT22;31489;51.404;5.474;2023-02-20T03:42:43;9.30;79.60
45785;DHT22;31489;51.404;5.474;2023-02-20T03:45:30;9.40;79.60
45785;DHT22;31489;51.404;5.474;2023-02-20T03:48:00;9.30;79.60
45785;DHT22;31489;51.404;5.474;2023-02-20T03:50:27;9.40;79.70
45785;DHT22;31489;51.404;5.474;2023-02-20T03:53:11;9.40;79.80
45785;DHT22;31489;51.404;5.474;2023-02-20T03:55:37;9.40;79.70
45785;DHT22;31489;51.404;5.474;2023-02-20T03:58:07;9.40;79.80
45785;DHT22;31489;51.404;5.474;2023-02-20T04:00:39;9.40;79.80
45785;DHT22;31489;51.404;5.474;2023-02-20T04:03:11;9.40;79.80
45785;DHT22;31489;51.404;5.474;2023-02-20T04:05:41;9.50;79.80
45785;DHT22;31489;51.404;5.474;2023-02-20T04:08:17;9.50;79.70
45785;DHT22;31489;51.404;5.474;2023-02-20T04:11:08;9.50;79.70
45785;DHT22;31489;51.404;5.474;2023-02-20T04:13:36;9.50;79.80
45785;DHT22;31489;51.404;5.474;2023-02-20T04:16:06;9.50;79.50
45785;DHT22;31489;51.404;5.474;2023-02-20T04:18:32;9.50;80.00
45785;DHT22;31489;51.404;5.474;2023-02-20T04:21:00;9.50;79.40
45785;DHT22;31489;51.404;5.474;2023-02-20T04:23:28;9.50;79.40
45785;DHT22;31489;51.404;5.474;2023-02-20T04:25:56;9.50;79.30
45785;DHT22;31489;51.404;5.474;2023-02-20T04:28:23;9.50;79.30
45785;DHT22;31489;51.404;5.474;2023-02-20T04:30:51;9.50;79.30
45785;DHT22;31489;51.404;5.474;2023-02-20T04:33:17;9.50;79.40
45785;DHT22;31489;51.404;5.474;2023-02-20T04:35:43;9.50;79.40
45785;DHT22;31489;51.404;5.474;2023-02-20T04:38:09;9.50;79.40
45785;DHT22;31489;51.404;5.474;2023-02-20T04:40:35;9.50;79.40
45785;DHT22;31489;51.404;5.474;2023-02-20T04:43:01;9.60;79.40
45785;DHT22;31489;51.404;5.474;2023-02-20T04:45:26;9.60;79.40
45785;DHT22;31489;51.404;5.474;2023-02-20T04:47:52;9.60;79.50
45785;DHT22;31489;51.404;5.474;2023-02-20T04:50:21;9.60;79.50
45785;DHT22;31489;51.404;5.474;2023-02-20T04:52:47;9.60;79.60
45785;DHT22;31489;51.404;5.474;2023-02-20T04:55:13;9.60;79.50
45785;DHT22;31489;51.404;5.474;2023-02-20T04:57:39;9.60;79.60
45785;DHT22;31489;51.404;5.474;2023-02-20T05:00:05;9.60;79.50
45785;DHT22;31489;51.404;5.474;2023-02-20T05:02:33;9.60;79.60
45785;DHT22;31489;51.404;5.474;2023-02-20T05:04:59;9.60;79.60
45785;DHT22;31489;51.404;5.474;2023-02-20T05:07:25;9.70;79.70
45785;DHT22;31489;51.404;5.474;2023-02-20T05:09:50;9.70;79.60
45785;DHT22;31489;51.404;5.474;2023-02-20T05:12:16;9.70;79.50
45785;DHT22;31489;51.404;5.474;2023-02-20T05:14:42;9.70;79.40
45785;DHT22;31489;51.404;5.474;2023-02-20T05:17:07;9.70;79.40
45785;DHT22;31489;51.404;5.474;2023-02-20T05:19:33;9.70;79.40
45785;DHT22;31489;51.404;5.474;2023-02-20T05:21:59;9.70;80.00
45785;DHT22;31489;51.404;5.474;2023-02-20T05:24:43;9.80;79.40
45785;DHT22;31489;51.404;5.474;2023-02-20T05:27:09;9.80;79.40
45785;DHT22;31489;51.404;5.474;2023-02-20T05:29:35;9.80;79.40
45785;DHT22;31489;51.404;5.474;2023-02-20T05:32:01;9.80;79.50
45785;DHT22;31489;51.404;5.474;2023-02-20T05:34:27;9.80;79.40
45785;DHT22;31489;51.404;5.474;2023-02-20T05:36:53;9.80;79.40
45785;DHT22;31489;51.404;5.474;2023-02-20T05:39:21;9.80;79.40
45785;DHT22;31489;51.404;5.474;2023-02-20T05:41:47;9.80;79.50
45785;DHT22;31489;51.404;5.474;2023-02-20T05:44:13;9.80;79.40
45785;DHT22;31489;51.404;5.474;2023-02-20T05:46:40;9.80;79.40
45785;DHT22;31489;51.404;5.474;2023-02-20T05:49:07;9.90;79.50
45785;DHT22;31489;51.404;5.474;2023-02-20T05:51:32;9.90;79.50
45785;DHT22;31489;51.404;5.474;2023-02-20T05:53:58;9.90;79.40
45785;DHT22;31489;51.404;5.474;2023-02-20T05:56:24;9.90;79.40
45785;DHT22;31489;51.404;5.474;2023-02-20T05:58:50;9.90;79.40
45785;DHT22;31489;51.404;5.474;2023-02-20T06:01:27;10.00;79.40
45785;DHT22;31489;51.404;5.474;2023-02-20T06:03:56;10.00;79.30
45785;DHT22;31489;51.404;5.474;2023-02-20T06:06:22;10.00;79.30
45785;DHT22;31489;51.404;5.474;2023-02-20T06:08:47;10.00;79.30
45785;DHT22;31489;51.404;5.474;2023-02-20T06:11:15;10.00;79.20
45785;DHT22;31489;51.404;5.474;2023-02-20T06:13:42;10.10;79.10
45785;DHT22;31489;51.404;5.474;2023-02-20T06:16:09;10.10;79.10
45785;DHT22;31489;51.404;5.474;2023-02-20T06:18:39;10.10;79.00
45785;DHT22;31489;51.404;5.474;2023-02-20T06:21:11;10.10;79.00
45785;DHT22;31489;51.404;5.474;2023-02-20T06:23:37;10.10;78.90
45785;DHT22;31489;51.404;5.474;2023-02-20T06:26:04;10.10;78.90
45785;DHT22;31489;51.404;5.474;2023-02-20T06:28:30;10.10;78.90
45785;DHT22;31489;51.404;5.474;2023-02-20T06:30:55;10.20;78.90
45785;DHT22;31489;51.404;5.474;2023-02-20T06:33:21;10.20;78.80
45785;DHT22;31489;51.404;5.474;2023-02-20T06:35:47;10.20;78.80
45785;DHT22;31489;51.404;5.474;2023-02-20T06:38:12;10.20;78.80
45785;DHT22;31489;51.404;5.474;2023-02-20T06:40:39;10.20;78.60
45785;DHT22;31489;51.404;5.474;2023-02-20T06:43:05;10.20;78.60
45785;DHT22;31489;51.404;5.474;2023-02-20T06:45:30;10.20;78.50
45785;DHT22;31489;51.404;5.474;2023-02-20T06:47:56;10.30;78.50
45785;DHT22;31489;51.404;5.474;2023-02-20T06:50:22;10.30;78.40
45785;DHT22;31489;51.404;5.474;2023-02-20T06:52:48;10.30;78.30
45785;DHT22;31489;51.404;5.474;2023-02-20T06:55:13;10.30;78.30
45785;DHT22;31489;51.404;5.474;2023-02-20T06:57:39;10.30;78.20
45785;DHT22;31489;51.404;5.474;2023-02-20T07:00:06;10.30;78.20
45785;DHT22;31489;51.404;5.474;2023-02-20T07:02:31;10.30;78.10
45785;DHT22;31489;51.404;5.474;2023-02-20T07:04:57;10.30;78.00
45785;DHT22;31489;51.404;5.474;2023-02-20T07:07:23;10.40;78.00
45785;DHT22;31489;51.404;5.474;2023-02-20T07:09:48;10.30;78.00
45785;DHT22;31489;51.404;5.474;2023-02-20T07:12:14;10.40;77.90
45785;DHT22;31489;51.404;5.474;2023-02-20T07:14:40;10.40;77.80
45785;DHT22;31489;51.404;5.474;2023-02-20T07:17:06;10.40;77.70
45785;DHT22;31489;51.404;5.474;2023-02-20T07:19:31;10.40;77.70
45785;DHT22;31489;51.404;5.474;2023-02-20T07:21:57;10.40;77.80
45785;DHT22;31489;51.404;5.474;2023-02-20T07:24:22;10.40;77.60
45785;DHT22;31489;51.404;5.474;2023-02-20T07:26:48;10.40;77.50
45785;DHT22;31489;51.404;5.474;2023-02-20T07:29:14;10.40;77.50
45785;DHT22;31489;51.404;5.474;2023-02-20T07:31:39;10.40;77.50
45785;DHT22;31489;51.404;5.474;2023-02-20T07:34:05;10.40;77.40
45785;DHT22;31489;51.404;5.474;2023-02-20T07:36:31;10.40;77.40
45785;DHT22;31489;51.404;5.474;2023-02-20T07:38:59;10.50;77.50
45785;DHT22;31489;51.404;5.474;2023-02-20T07:41:26;10.40;77.40
45785;DHT22;31489;51.404;5.474;2023-02-20T07:43:54;10.50;77.30
45785;DHT22;31489;51.404;5.474;2023-02-20T07:46:21;10.50;77.20
45785;DHT22;31489;51.404;5.474;2023-02-20T07:48:47;10.50;77.30
45785;DHT22;31489;51.404;5.474;2023-02-20T07:51:15;10.50;77.30
45785;DHT22;31489;51.404;5.474;2023-02-20T07:53:49;10.50;77.20
45785;DHT22;31489;51.404;5.474;2023-02-20T07:56:16;10.50;77.10
45785;DHT22;31489;51.404;5.474;2023-02-20T07:58:42;10.50;77.20
45785;DHT22;31489;51.404;5.474;2023-02-20T08:01:08;10.50;77.20
45785;DHT22;31489;51.404;5.474;2023-02-20T08:03:34;10.50;77.00
45785;DHT22;31489;51.404;5.474;2023-02-20T08:05:59;10.50;77.10
45785;DHT22;31489;51.404;5.474;2023-02-20T08:08:25;10.50;77.10
45785;DHT22;31489;51.404;5.474;2023-02-20T08:10:51;10.60;77.20
45785;DHT22;31489;51.404;5.474;2023-02-20T08:13:17;10.50;77.10
45785;DHT22;31489;51.404;5.474;2023-02-20T08:15:43;10.60;77.20
45785;DHT22;31489;51.404;5.474;2023-02-20T08:18:10;10.60;77.10
45785;DHT22;31489;51.404;5.474;2023-02-20T08:20:35;10.60;77.10
45785;DHT22;31489;51.404;5.474;2023-02-20T08:23:01;10.60;77.20
45785;DHT22;31489;51.404;5.474;2023-02-20T08:25:29;10.60;77.10
45785;DHT22;31489;51.404;5.474;2023-02-20T08:27:57;10.60;77.10
45785;DHT22;31489;51.404;5.474;2023-02-20T08:30:25;10.60;77.10
45785;DHT22;31489;51.404;5.474;2023-02-20T08:32:51;10.70;77.20
45785;DHT22;31489;51.404;5.474;2023-02-20T08:35:18;10.70;77.20
45785;DHT22;31489;51.404;5.474;2023-02-20T08:37:44;10.70;77.20
45785;DHT22;31489;51.404;5.474;2023-02-20T08:40:11;10.70;77.10
45785;DHT22;31489;51.404;5.474;2023-02-20T08:42:38;10.70;77.10
45785;DHT22;31489;51.404;5.474;2023-02-20T08:45:06;10.70;77.10
45785;DHT22;31489;51.404;5.474;2023-02-20T08:47:34;10.80;77.20
45785;DHT22;31489;51.404;5.474;2023-02-20T08:49:59;10.80;77.10
45785;DHT22;31489;51.404;5.474;2023-02-20T08:52:26;10.80;77.10
45785;DHT22;31489;51.404;5.474;2023-02-20T08:54:51;10.80;77.10
45785;DHT22;31489;51.404;5.474;2023-02-20T08:57:18;10.80;77.10
45785;DHT22;31489;51.404;5.474;2023-02-20T08:59:44;10.90;77.20
45785;DHT22;31489;51.404;5.474;2023-02-20T09:02:23;10.90;77.10
45785;DHT22;31489;51.404;5.474;2023-02-20T09:04:55;10.90;76.90
45785;DHT22;31489;51.404;5.474;2023-02-20T09:07:21;10.90;77.00
45785;DHT22;31489;51.404;5.474;2023-02-20T09:09:50;10.90;77.00
45785;DHT22;31489;51.404;5.474;2023-02-20T09:12:16;10.90;77.10
45785;DHT22;31489;51.404;5.474;2023-02-20T09:14:42;11.00;77.20
45785;DHT22;31489;51.404;5.474;2023-02-20T09:17:07;11.00;77.10
45785;DHT22;31489;51.404;5.474;2023-02-20T09:19:33;11.00;77.10
45785;DHT22;31489;51.404;5.474;2023-02-20T09:22:02;11.00;77.10
45785;DHT22;31489;51.404;5.474;2023-02-20T09:24:28;11.00;77.00
45785;DHT22;31489;51.404;5.474;2023-02-20T09:27:01;11.10;77.00
45785;DHT22;31489;51.404;5.474;2023-02-20T09:29:33;11.10;77.10
45785;DHT22;31489;51.404;5.474;2023-02-20T09:32:01;11.10;77.10
45785;DHT22;31489;51.404;5.474;2023-02-20T09:34:27;11.10;77.10
45785;DHT22;31489;51.404;5.474;2023-02-20T09:36:52;11.10;77.10
45785;DHT22;31489;51.404;5.474;2023-02-20T09:39:18;11.10;77.00
45785;DHT22;31489;51.404;5.474;2023-02-20T09:42:06;11.10;77.10
45785;DHT22;31489;51.404;5.474;2023-02-20T09:50:17;11.20;76.80
45785;DHT22;31489;51.404;5.474;2023-02-20T09:52:56;11.20;76.80
45785;DHT22;31489;51.404;5.474;2023-02-20T09:55:22;11.20;76.80
45785;DHT22;31489;51.404;5.474;2023-02-20T09:57:50;11.20;77.00
45785;DHT22;31489;51.404;5.474;2023-02-20T10:00:32;11.20;76.90
45785;DHT22;31489;51.404;5.474;2023-02-20T10:03:27;11.20;76.80
45785;DHT22;31489;51.404;5.474;2023-02-20T10:06:00;11.20;76.70
45785;DHT22;31489;51.404;5.474;2023-02-20T10:08:27;11.30;77.10
45785;DHT22;31489;51.404;5.474;2023-02-20T10:10:57;11.30;77.10
45785;DHT22;31489;51.404;5.474;2023-02-20T10:13:51;11.30;77.20
45785;DHT22;31489;51.404;5.474;2023-02-20T10:16:39;11.30;77.00
45785;DHT22;31489;51.404;5.474;2023-02-20T10:22:24;11.30;76.80
45785;DHT22;31489;51.404;5.474;2023-02-20T10:25:16;11.40;77.10
45785;DHT22;31489;51.404;5.474;2023-02-20T10:30:33;11.40;76.90
45785;DHT22;31489;51.404;5.474;2023-02-20T10:35:49;11.40;77.00
45785;DHT22;31489;51.404;5.474;2023-02-20T10:38:20;11.50;77.10
45785;DHT22;31489;51.404;5.474;2023-02-20T10:40:50;11.50;77.10
45785;DHT22;31489;51.404;5.474;2023-02-20T10:43:37;11.50;77.10
45785;DHT22;31489;51.404;5.474;2023-02-20T10:48:51;11.50;77.00
45785;DHT22;31489;51.404;5.474;2023-02-20T10:51:42;11.50;76.90
45785;DHT22;31489;51.404;5.474;2023-02-20T10:54:18;11.50;76.80
45785;DHT22;31489;51.404;5.474;2023-02-20T10:59:18;11.50;77.10
45785;DHT22;31489;51.404;5.474;2023-02-20T11:01:50;11.60;77.10
45785;DHT22;31489;51.404;5.474;2023-02-20T11:04:33;11.60;77.20
45785;DHT22;31489;51.404;5.474;2023-02-20T11:07:03;11.60;77.10
45785;DHT22;31489;51.404;5.474;2023-02-20T11:09:31;11.60;77.30
45785;DHT22;31489;51.404;5.474;2023-02-20T11:11:57;11.60;77.20
45785;DHT22;31489;51.404;5.474;2023-02-20T11:14:40;11.60;77.20
45785;DHT22;31489;51.404;5.474;2023-02-20T11:17:14;11.70;77.20
45785;DHT22;31489;51.404;5.474;2023-02-20T11:19:59;11.60;77.20
45785;DHT22;31489;51.404;5.474;2023-02-20T11:22:43;11.70;77.10
45785;DHT22;31489;51.404;5.474;2023-02-20T11:25:22;11.70;77.10
45785;DHT22;31489;51.404;5.474;2023-02-20T11:27:55;11.70;77.20
45785;DHT22;31489;51.404;5.474;2023-02-20T11:30:31;11.70;77.30
45785;DHT22;31489;51.404;5.474;2023-02-20T11:33:01;11.70;77.20
45785;DHT22;31489;51.404;5.474;2023-02-20T11:35:32;11.70;77.30
45785;DHT22;31489;51.404;5.474;2023-02-20T11:40:44;11.70;77.40
45785;DHT22;31489;51.404;5.474;2023-02-20T11:43:18;11.70;77.40
45785;DHT22;31489;51.404;5.474;2023-02-20T11:45:45;11.70;77.50
45785;DHT22;31489;51.404;5.474;2023-02-20T11:48:15;11.70;77.60
45785;DHT22;31489;51.404;5.474;2023-02-20T11:50:45;11.70;77.50
45785;DHT22;31489;51.404;5.474;2023-02-20T11:53:25;11.70;77.50
45785;DHT22;31489;51.404;5.474;2023-02-20T11:58:36;11.70;77.50
45785;DHT22;31489;51.404;5.474;2023-02-20T12:01:02;11.80;77.50
45785;DHT22;31489;51.404;5.474;2023-02-20T12:03:30;11.80;77.50
45785;DHT22;31489;51.404;5.474;2023-02-20T12:05:58;11.70;77.50
45785;DHT22;31489;51.404;5.474;2023-02-20T12:11:17;11.80;77.60
45785;DHT22;31489;51.404;5.474;2023-02-20T12:13:46;11.80;77.80
45785;DHT22;31489;51.404;5.474;2023-02-20T12:19:15;11.80;77.80
45785;DHT22;31489;51.404;5.474;2023-02-20T12:24:47;11.80;77.70
45785;DHT22;31489;51.404;5.474;2023-02-20T12:27:47;11.80;77.70
45785;DHT22;31489;51.404;5.474;2023-02-20T12:30:23;11.90;77.70
45785;DHT22;31489;51.404;5.474;2023-02-20T12:35:57;11.90;77.70
45785;DHT22;31489;51.404;5.474;2023-02-20T12:58:47;12.10;77.70
45785;DHT22;31489;51.404;5.474;2023-02-20T13:01:20;12.00;77.70
45785;DHT22;31489;51.404;5.474;2023-02-20T13:04:00;12.10;77.70
45785;DHT22;31489;51.404;5.474;2023-02-20T13:07:17;12.10;77.50
45785;DHT22;31489;51.404;5.474;2023-02-20T13:10:06;12.10;77.50
45785;DHT22;31489;51.404;5.474;2023-02-20T13:12:33;12.10;77.50
45785;DHT22;31489;51.404;5.474;2023-02-20T13:17:48;12.10;77.50
45785;DHT22;31489;51.404;5.474;2023-02-20T13:22:41;12.10;77.60
45785;DHT22;31489;51.404;5.474;2023-02-20T13:31:13;12.20;77.50
45785;DHT22;31489;51.404;5.474;2023-02-20T13:34:29;12.20;77.30
45785;DHT22;31489;51.404;5.474;2023-02-20T13:41:59;12.20;77.40
45785;DHT22;31489;51.404;5.474;2023-02-20T13:46:58;12.20;77.30
45785;DHT22;31489;51.404;5.474;2023-02-20T13:49:56;12.30;77.40
45785;DHT22;31489;51.404;5.474;2023-02-20T13:52:40;12.30;77.30
45785;DHT22;31489;51.404;5.474;2023-02-20T13:57:50;12.30;77.30
45785;DHT22;31489;51.404;5.474;2023-02-20T14:02:52;12.40;77.00
45785;DHT22;31489;51.404;5.474;2023-02-20T14:05:23;12.40;77.00
45785;DHT22;31489;51.404;5.474;2023-02-20T14:07:49;12.30;76.80
45785;DHT22;31489;51.404;5.474;2023-02-20T14:10:32;12.30;76.80
45785;DHT22;31489;51.404;5.474;2023-02-20T14:15:31;12.30;76.60
45785;DHT22;31489;51.404;5.474;2023-02-20T14:17:57;12.30;76.60
45785;DHT22;31489;51.404;5.474;2023-02-20T14:20:34;12.40;76.80
45785;DHT22;31489;51.404;5.474;2023-02-20T14:23:39;12.30;76.60
45785;DHT22;31489;51.404;5.474;2023-02-20T14:26:05;12.30;76.50
45785;DHT22;31489;51.404;5.474;2023-02-20T14:28:45;12.30;76.60
45785;DHT22;31489;51.404;5.474;2023-02-20T14:33:47;12.40;76.70
45785;DHT22;31489;51.404;5.474;2023-02-20T14:36:41;12.30;76.70
45785;DHT22;31489;51.404;5.474;2023-02-20T14:41:51;12.40;76.70
45785;DHT22;31489;51.404;5.474;2023-02-20T14:44:17;12.30;76.60
45785;DHT22;31489;51.404;5.474;2023-02-20T14:46:44;12.40;76.70
45785;DHT22;31489;51.404;5.474;2023-02-20T14:49:16;12.30;76.60
45785;DHT22;31489;51.404;5.474;2023-02-20T14:51:47;12.40;76.60
45785;DHT22;31489;51.404;5.474;2023-02-20T14:56:38;12.40;76.70
45785;DHT22;31489;51.404;5.474;2023-02-20T15:04:26;12.40;76.50
45785;DHT22;31489;51.404;5.474;2023-02-20T15:06:58;12.40;76.60
45785;DHT22;31489;51.404;5.474;2023-02-20T15:09:37;12.40;76.50
45785;DHT22;31489;51.404;5.474;2023-02-20T15:12:03;12.50;76.40
45785;DHT22;31489;51.404;5.474;2023-02-20T15:14:36;12.50;76.60
45785;DHT22;31489;51.404;5.474;2023-02-20T15:17:25;12.50;76.60
45785;DHT22;31489;51.404;5.474;2023-02-20T15:19:51;12.50;76.40
45785;DHT22;31489;51.404;5.474;2023-02-20T15:22:32;12.50;76.50
45785;DHT22;31489;51.404;5.474;2023-02-20T15:28:06;12.50;76.30
45785;DHT22;31489;51.404;5.474;2023-02-20T15:30:33;12.50;76.30
45785;DHT22;31489;51.404;5.474;2023-02-20T15:32:59;12.50;76.60
45785;DHT22;31489;51.404;5.474;2023-02-20T15:35:26;12.60;76.50
45785;DHT22;31489;51.404;5.474;2023-02-20T15:37:55;12.60;76.50
45785;DHT22;31489;51.404;5.474;2023-02-20T15:40:32;12.60;76.40
45785;DHT22;31489;51.404;5.474;2023-02-20T15:42:58;12.60;76.40
45785;DHT22;31489;51.404;5.474;2023-02-20T15:45:29;12.60;76.40
45785;DHT22;31489;51.404;5.474;2023-02-20T15:47:56;12.60;76.40
45785;DHT22;31489;51.404;5.474;2023-02-20T15:50:23;12.60;76.50
45785;DHT22;31489;51.404;5.474;2023-02-20T15:52:50;12.60;76.40
45785;DHT22;31489;51.404;5.474;2023-02-20T15:55:19;12.60;76.40
45785;DHT22;31489;51.404;5.474;2023-02-20T15:57:48;12.60;76.40
45785;DHT22;31489;51.404;5.474;2023-02-20T16:00:21;12.60;76.40
45785;DHT22;31489;51.404;5.474;2023-02-20T16:02:47;12.60;76.40
45785;DHT22;31489;51.404;5.474;2023-02-20T16:05:15;12.60;76.50
45785;DHT22;31489;51.404;5.474;2023-02-20T16:07:41;12.60;76.40
45785;DHT22;31489;51.404;5.474;2023-02-20T16:10:08;12.60;76.50
45785;DHT22;31489;51.404;5.474;2023-02-20T16:12:34;12.60;76.50
45785;DHT22;31489;51.404;5.474;2023-02-20T16:14:59;12.60;76.50
45785;DHT22;31489;51.404;5.474;2023-02-20T16:17:32;12.60;76.50
45785;DHT22;31489;51.404;5.474;2023-02-20T16:19:58;12.60;76.40
45785;DHT22;31489;51.404;5.474;2023-02-20T16:22:24;12.60;76.40
45785;DHT22;31489;51.404;5.474;2023-02-20T16:24:49;12.60;76.40
45785;DHT22;31489;51.404;5.474;2023-02-20T16:27:24;12.70;76.40
45785;DHT22;31489;51.404;5.474;2023-02-20T16:29:50;12.60;76.20
45785;DHT22;31489;51.404;5.474;2023-02-20T16:32:26;12.60;76.40
45785;DHT22;31489;51.404;5.474;2023-02-20T16:34:53;12.70;76.30
45785;DHT22;31489;51.404;5.474;2023-02-20T16:37:20;12.70;76.40
45785;DHT22;31489;51.404;5.474;2023-02-20T16:39:46;12.60;76.30
45785;DHT22;31489;51.404;5.474;2023-02-20T16:42:26;12.60;76.30
45785;DHT22;31489;51.404;5.474;2023-02-20T16:44:53;12.60;76.20
45785;DHT22;31489;51.404;5.474;2023-02-20T16:47:26;12.60;76.30
45785;DHT22;31489;51.404;5.474;2023-02-20T16:49:53;12.60;76.10
45785;DHT22;31489;51.404;5.474;2023-02-20T16:52:30;12.60;76.30
45785;DHT22;31489;51.404;5.474;2023-02-20T16:57:50;12.60;76.30
45785;DHT22;31489;51.404;5.474;2023-02-20T17:00:21;12.60;76.30
45785;DHT22;31489;51.404;5.474;2023-02-20T17:02:47;12.60;76.30
45785;DHT22;31489;51.404;5.474;2023-02-20T17:05:13;12.60;76.40
45785;DHT22;31489;51.404;5.474;2023-02-20T17:07:39;12.60;76.40
45785;DHT22;31489;51.404;5.474;2023-02-20T17:10:08;12.60;76.40
45785;DHT22;31489;51.404;5.474;2023-02-20T17:12:34;12.60;76.30
45785;DHT22;31489;51.404;5.474;2023-02-20T17:15:02;12.60;76.30
45785;DHT22;31489;51.404;5.474;2023-02-20T17:17:29;12.70;76.30
45785;DHT22;31489;51.404;5.474;2023-02-20T17:19:58;12.70;76.30
45785;DHT22;31489;51.404;5.474;2023-02-20T17:22:24;12.60;76.40
45785;DHT22;31489;51.404;5.474;2023-02-20T17:24:50;12.70;76.40
45785;DHT22;31489;51.404;5.474;2023-02-20T17:27:16;12.70;76.30
45785;DHT22;31489;51.404;5.474;2023-02-20T17:29:43;12.70;76.40
45785;DHT22;31489;51.404;5.474;2023-02-20T17:32:09;12.60;76.30
45785;DHT22;31489;51.404;5.474;2023-02-20T17:34:35;12.70;76.40
45785;DHT22;31489;51.404;5.474;2023-02-20T17:37:01;12.70;76.40
45785;DHT22;31489;51.404;5.474;2023-02-20T17:39:27;12.70;76.40
45785;DHT22;31489;51.404;5.474;2023-02-20T17:41:54;12.70;76.40
45785;DHT22;31489;51.404;5.474;2023-02-20T17:44:25;12.70;76.30
45785;DHT22;31489;51.404;5.474;2023-02-20T17:46:55;12.70;76.30
45785;DHT22;31489;51.404;5.474;2023-02-20T17:49:22;12.70;76.20
45785;DHT22;31489;51.404;5.474;2023-02-20T17:51:53;12.80;76.30
45785;DHT22;31489;51.404;5.474;2023-02-20T17:54:26;12.80;76.20
45785;DHT22;31489;51.404;5.474;2023-02-20T17:56:56;12.80;76.20